Galesville, WI (54630)

11:53 AM CDT on July 28, 2015 (GMT -0500)
Galesville SW | | Change Station
CLOSE
Current Station
Personal Weather Station
Location: Galesville, WI
Elevation: 769 ft
Nearby Weather Stations

Elev 769 ft 44.07 °N, 91.39 °W | Updated 36 seconds ago

Rain
Rain
71.8 °F
Feels Like 71.8 °F
N
7.8
Wind Variable Wind from SE
Gusts 12.1 mph

Today
High -- | Low -- °F
--% Chance of Precip.
Yesterday
High -- | Low -- °F
Precip. -- in
5:48 AM 8:34 PM
Waxing Gibbous, 90% visible
Pressure 29.94 in
Visibility 3.0 miles
Clouds Few 1100 ft
Mostly Cloudy 3500 ft
Overcast 7500 ft
Dew Point 69 °F
Humidity 90%
Rainfall 0.76 in
Snow Depth Not available.
UV 3 out of 12
Pollen 4.40 out of 12
Air Quality Not available.
Flu Activity Not available.
SPECI KLSE 281624Z 06005KT 3SM -RA BR FEW011 BKN035 OVC075 22/21 A2994 RMK AO2 LTG DSNT SW P0023 T02170211

More Conditions Fewer Conditions

Pressure 29.94 in
Visibility 3.0 miles
Clouds Few 1100 ft
Mostly Cloudy 3500 ft
Overcast 7500 ft
Dew Point 69 °F
Humidity 90%
Rainfall 0.76 in
Snow Depth Not available.
UV 3 out of 12
Pollen 4.40 out of 12
Air Quality Not available.
Flu Activity Not available.
SPECI KLSE 281624Z 06005KT 3SM -RA BR FEW011 BKN035 OVC075 22/21 A2994 RMK AO2 LTG DSNT SW P0023 T02170211

More Conditions Fewer Conditions

10-Day Weather Forecast

×

Almanac

Astronomy

Jul. 28, 2015 Rise Set
Actual Time
Civil Twilight
Nautical Twilight
Astronomical Twilight
Moon
Length of Visible Light
Length of Day
Tomorrow will be .
, % of the Moon is Illuminated

Today's Extremes

State Highs State Lows

Community

WunderPhotos

Upload Photos

1,841,891 photos uploaded!

WunderBlogs® & News

Nearby

Air Quality

  Air Quality AQ Index Pollutant
Not available.

Snow Depth

Station Depth Elevation

Earthquake Activity

City Distance Mag. Time & Date
Minimum magnitude displayed is 2.5.

Coastal Water Temperatures

Place Temperature

Stations

Nearby Weather Stations

Station Location Temp. Windchill Dew Point Humidity Wind Precip. Elev Updated Type